Ana Sayfa
METAR-TAF:

METAR-TAF

Havaalanları :

Hebron Municipal Airport

Hebron, Nebraska, Amerika Birleşik Devletleri

Enlem: 40-09-08N, Boylam: 097-35-13W, yükseklik: 447 m

Güncel hava durumu gözlemi

Rapor saat 11:35 UTC de 29 dakika önce yapıldı.
Rüzgar güney/güneydoğudan 14 kt ve 19 kt'a kadar ani rüzgarlar
Sıcaklık 22°C
Nem 83%
Basınç 1006 hPa
Görüş mesafesi: 16.1 km
Açık gökyüzü

METAR: KHJH 161135Z AUTO 16014G19KT 10SM CLR 22/19 A2972 RMK AO2 T02150189

Saat: 07:04 (12:04 UTC)


TAF: eksik

4.000'den fazla havaalanı için hava durumu gözlemleri ve tahminleri (METAR ve TAF raporları).

Kullanılabilir istasyonlar harita üzerinde sarı ve kırmızı noktalarla gösterilir.

İstasyonun adını görmek için fareyi noktanın üzerinde gezdirin.

Sonrasında hava gözlem ve tahminlerini görmek için tıklayın.

Haritayı değiştirmek için: yaklaştırmak için siyah artı işaretli yeşil düğmeye ve uzaklaştırmak için de eksi işaretli düğmeye hızla tıklayın; bitişik haritalar için yeşil okları kullanın.


METAR-TAF: